Terminal Aerodrome Forecast
Issued by NWS

Home | Current Version | Previous Version | Text Only | Print | Product List | Glossary On
Versions: 1 2 3 4 5 6 7 8 9 10 11 12 13 14
000
FTUS44 KBMX 222038 AAB
TAFMGM
TAF AMD
KMGM 222038Z 2221/2318 12008KT P6SM SCT025 OVC060
     FM222300 13008KT P6SM -RA OVC050
     FM230300 13007KT P6SM VCSH OVC035
     FM230800 15006KT 3SM -SHRA VCTS OVC008CB
     FM231200 25007KT 5SM -RA OVC008
     FM231400 27008KT P6SM OVC010=

USA.gov is the U.S. government's official web portal to all federal, state and local government web resources and services.